Time;durP1;ratioP1;P1;durP2;ratioP2;P2;SDS_P1;SDS_P2;PMS_P1;PMS_P2;Temp;Humidity;BMP_temperature;BMP_pressure;BME280_temperature;BME280_humidity;BME280_pressure;Samples;Min_cycle;Max_cycle;Signal;HPM_P1;HPM_P2
2024/02/04 00:01:15;;;;;;;27.92;4.80;;;;;;;5.41;100.00;100083.16;5055203;28;20028;-68
2024/02/04 00:03:41;;;;;;;44.00;6.22;;;;;;;5.49;100.00;100064.38;5056442;28;20036;-70
2024/02/04 00:06:06;;;;;;;44.85;5.97;;;;;;;5.33;100.00;100038.72;5038759;28;20056;-69
2024/02/04 00:08:32;;;;;;;47.35;6.75;;;;;;;5.45;100.00;100073.75;5055773;28;20494;-68
2024/02/04 00:10:57;;;;;;;49.65;8.13;;;;;;;5.40;100.00;100066.31;5054987;28;20028;-68
2024/02/04 00:13:22;;;;;;;40.75;6.07;;;;;;;5.42;100.00;100076.78;5056830;28;20029;-69
2024/02/04 00:15:48;;;;;;;27.25;5.25;;;;;;;5.39;100.00;100095.84;5055003;28;20060;-68
2024/02/04 00:18:14;;;;;;;39.63;6.10;;;;;;;5.38;100.00;100092.34;5056347;28;20056;-68
2024/02/04 00:20:39;;;;;;;22.75;4.03;;;;;;;5.35;100.00;100084.69;5056299;28;20037;-68
2024/02/04 00:23:04;;;;;;;28.45;4.65;;;;;;;5.29;100.00;100084.59;5038945;28;20029;-70
2024/02/04 00:25:30;;;;;;;28.50;4.72;;;;;;;5.30;100.00;100083.63;5056830;28;20059;-68
2024/02/04 00:27:55;;;;;;;24.45;3.53;;;;;;;5.27;100.00;100065.31;5056655;28;20040;-68
2024/02/04 00:30:21;;;;;;;21.50;3.50;;;;;;;5.22;100.00;100076.50;5056720;28;20025;-69
2024/02/04 00:32:46;;;;;;;23.20;4.50;;;;;;;5.14;100.00;100074.75;5038698;28;20043;-69
2024/02/04 00:35:11;;;;;;;20.85;3.97;;;;;;;5.09;100.00;100074.44;5039000;28;20120;-69
2024/02/04 00:37:37;;;;;;;23.30;3.58;;;;;;;4.75;100.00;100010.16;5056675;28;20064;-68
2024/02/04 00:40:02;;;;;;;21.88;2.70;;;;;;;4.87;100.00;100036.19;5057134;28;20053;-70
2024/02/04 00:42:28;;;;;;;24.60;4.20;;;;;;;5.04;100.00;100060.84;5058803;28;20025;-69
2024/02/04 00:44:53;;;;;;;26.08;3.03;;;;;;;5.02;100.00;100056.72;5056620;28;20443;-69
2024/02/04 00:47:18;;;;;;;14.80;2.15;;;;;;;5.05;100.00;100073.16;5038590;28;20039;-68
2024/02/04 00:49:44;;;;;;;18.73;2.90;;;;;;;4.91;100.00;100047.31;5054745;28;20029;-69
2024/02/04 00:52:09;;;;;;;19.83;3.15;;;;;;;5.04;100.00;100073.38;5021623;28;20037;-68
2024/02/04 00:54:34;;;;;;;21.95;4.00;;;;;;;4.99;100.00;100065.88;5055663;28;20325;-68
2024/02/04 00:57:00;;;;;;;26.60;3.70;;;;;;;5.00;100.00;100050.72;5056447;28;20033;-67
2024/02/04 00:59:25;;;;;;;24.65;4.32;;;;;;;4.88;100.00;100037.84;5054491;28;20029;-68
2024/02/04 01:01:51;;;;;;;35.45;6.18;;;;;;;4.93;100.00;100061.28;5054870;28;20128;-69
2024/02/04 01:04:18;;;;;;;21.88;3.53;;;;;;;4.88;100.00;100056.50;5055723;28;20029;-68
2024/02/04 01:06:43;;;;;;;18.30;2.72;;;;;;;4.89;100.00;100046.66;5037963;28;20219;-69
2024/02/04 01:09:08;;;;;;;21.58;3.65;;;;;;;4.67;100.00;100029.72;5054686;28;20179;-69
2024/02/04 01:11:34;;;;;;;29.80;4.22;;;;;;;4.92;100.00;100068.44;5055980;28;20059;-68
2024/02/04 01:13:59;;;;;;;23.70;3.28;;;;;;;4.93;100.00;100085.25;5056209;28;20037;-69
2024/02/04 01:16:26;;;;;;;13.88;2.35;;;;;;;4.93;100.00;100074.59;5055859;28;20037;-70
2024/02/04 01:18:51;;;;;;;25.45;4.28;;;;;;;4.93;100.00;100079.94;5055959;28;20489;-70
2024/02/04 01:21:17;;;;;;;23.98;3.63;;;;;;;4.92;100.00;100081.78;5038312;28;20037;-68
2024/02/04 01:23:42;;;;;;;18.13;2.20;;;;;;;4.90;100.00;100072.28;5038004;28;20545;-69
2024/02/04 01:26:09;;;;;;;26.17;3.80;;;;;;;4.92;100.00;100078.28;5055940;28;20033;-68
2024/02/04 01:28:35;;;;;;;21.63;3.75;;;;;;;4.88;100.00;100079.66;5038213;28;20029;-69
2024/02/04 01:31:00;;;;;;;32.88;3.78;;;;;;;4.65;100.00;100048.53;5054566;28;20033;-69
2024/02/04 01:33:26;;;;;;;26.30;2.63;;;;;;;4.78;100.00;100073.75;5056119;28;20029;-68
2024/02/04 01:35:52;;;;;;;26.83;3.85;;;;;;;4.74;100.00;100043.16;5054226;28;20487;-73
2024/02/04 01:38:17;;;;;;;34.40;4.45;;;;;;;4.79;100.00;100070.91;5054789;28;20041;-68
2024/02/04 01:40:43;;;;;;;28.40;4.60;;;;;;;4.81;100.00;100082.22;5054311;28;20128;-69
2024/02/04 01:43:08;;;;;;;23.02;3.47;;;;;;;4.64;100.00;100038.88;5041107;28;20040;-68
2024/02/04 01:45:34;;;;;;;26.67;3.78;;;;;;;4.60;100.00;100037.59;5042618;28;20029;-68
2024/02/04 01:47:59;;;;;;;21.95;2.90;;;;;;;4.80;100.00;100067.25;5060040;28;20033;-68
2024/02/04 01:50:24;;;;;;;25.30;3.35;;;;;;;4.77;100.00;100056.94;5060271;28;20376;-69
2024/02/04 01:52:52;;;;;;;19.55;3.30;;;;;;;4.80;100.00;100056.59;5057133;28;20036;-69
2024/02/04 01:55:18;;;;;;;24.20;3.78;;;;;;;4.77;100.00;100043.63;5057031;28;20049;-69
2024/02/04 01:57:44;;;;;;;20.50;3.15;;;;;;;4.78;100.00;100041.78;5039239;28;20036;-68
2024/02/04 02:00:10;;;;;;;29.13;4.18;;;;;;;4.78;100.00;100036.44;5055487;28;20025;-70
2024/02/04 02:02:40;;;;;;;24.13;3.78;;;;;;;4.66;100.00;100023.53;5057489;28;20273;-69
2024/02/04 02:05:07;;;;;;;24.83;3.13;;;;;;;4.66;100.00;100042.19;5055853;28;20029;-68
2024/02/04 02:07:32;;;;;;;26.88;4.47;;;;;;;4.70;100.00;100034.66;5055612;28;20029;-68
2024/02/04 02:09:58;;;;;;;29.92;4.30;;;;;;;4.64;100.00;100032.72;5039026;28;20036;-66
2024/02/04 02:12:33;;;;;;;23.90;3.40;;;;;;;4.54;100.00;100009.00;5056136;28;20032;-69
2024/02/04 02:15:13;;;;;;;23.42;2.72;;;;;;;4.64;100.00;100025.56;5038396;28;20029;-70
2024/02/04 02:18:04;;;;;;;16.65;3.15;;;;;;;4.58;100.00;100020.94;5057665;28;20078;-68
2024/02/04 02:20:50;;;;;;;25.13;3.50;;;;;;;4.49;100.00;100022.00;5058792;28;20048;-68
2024/02/04 02:23:40;;;;;;;30.35;4.00;;;;;;;4.46;100.00;100014.38;5059019;28;20032;-68
2024/02/04 02:26:06;;;;;;;24.52;2.75;;;;;;;4.46;100.00;100012.53;5058281;28;20032;-68
2024/02/04 02:28:33;;;;;;;21.58;3.35;;;;;;;4.49;100.00;99998.03;5040427;28;20553;-68
2024/02/04 02:30:59;;;;;;;29.60;4.00;;;;;;;4.51;100.00;99997.88;5057387;28;20060;-67
2024/02/04 02:33:24;;;;;;;21.52;3.78;;;;;;;4.52;100.00;100005.69;5057711;28;20033;-68
2024/02/04 02:35:56;;;;;;;26.90;2.85;;;;;;;4.50;100.00;100006.84;5057434;28;20041;-68
2024/02/04 02:38:43;;;;;;;28.08;4.05;;;;;;;4.48;100.00;100004.38;5058748;28;20144;-68
2024/02/04 02:41:11;;;;;;;29.50;3.80;;;;;;;4.30;100.00;99963.91;5057420;28;20372;-68
2024/02/04 02:43:41;;;;;;;28.08;4.85;;;;;;;4.52;100.00;99984.38;5059625;28;20048;-66
2024/02/04 02:46:07;;;;;;;33.40;4.65;;;;;;;4.52;100.00;99986.19;5063174;28;20029;-67
2024/02/04 02:48:33;;;;;;;32.58;3.72;;;;;;;4.54;100.00;99977.03;5062397;28;20029;-66
2024/02/04 02:50:59;;;;;;;23.30;3.10;;;;;;;4.58;100.00;99972.16;5060148;28;20021;-68
2024/02/04 02:53:24;;;;;;;36.15;4.35;;;;;;;4.42;100.00;99962.47;5058071;28;20040;-68
2024/02/04 02:55:50;;;;;;;22.50;3.72;;;;;;;4.46;100.00;99971.75;5057664;28;20037;-68
2024/02/04 02:58:15;;;;;;;29.88;4.32;;;;;;;4.47;100.00;99962.78;5040730;28;20056;-68
2024/02/04 03:00:40;;;;;;;19.90;3.63;;;;;;;4.60;100.00;99976.31;5040970;28;20029;-68
2024/02/04 03:03:06;;;;;;;32.50;4.07;;;;;;;4.60;100.00;99988.78;5057658;28;20056;-69
2024/02/04 03:05:31;;;;;;;32.55;4.07;;;;;;;4.50;100.00;99951.72;5057214;28;20033;-69
2024/02/04 03:07:57;;;;;;;32.78;4.40;;;;;;;4.66;100.00;99980.06;5057631;28;20087;-68
2024/02/04 03:10:22;;;;;;;30.27;4.25;;;;;;;4.68;100.00;99981.56;5058228;28;20249;-70
2024/02/04 03:12:48;;;;;;;32.08;4.30;;;;;;;4.62;100.00;99968.94;5059795;28;20399;-68
2024/02/04 03:15:13;;;;;;;31.85;4.28;;;;;;;3.80;100.00;99808.25;5041151;28;20032;-67
2024/02/04 03:17:39;;;;;;;32.10;4.22;;;;;;;4.70;100.00;99939.56;5041565;28;20037;-68
2024/02/04 03:20:04;;;;;;;39.67;4.40;;;;;;;4.70;100.00;99938.72;5058739;28;20052;-69
2024/02/04 03:22:30;;;;;;;34.47;5.90;;;;;;;4.74;100.00;99940.03;5057025;28;20037;-69
2024/02/04 03:24:55;;;;;;;31.25;4.13;;;;;;;4.71;100.00;99914.56;5058225;28;20471;-68
2024/02/04 03:27:20;;;;;;;34.08;5.20;;;;;;;4.82;100.00;99937.28;5056695;28;20032;-68
2024/02/04 03:29:47;;;;;;;32.03;4.00;;;;;;;4.84;100.00;99943.25;5057669;28;20028;-69
2024/02/04 03:32:13;;;;;;;30.15;3.80;;;;;;;4.88;100.00;99933.88;5039696;28;20020;-68
2024/02/04 03:34:40;;;;;;;25.38;3.72;;;;;;;4.91;100.00;99935.34;5056446;28;20460;-68
2024/02/04 03:37:06;;;;;;;28.23;3.78;;;;;;;4.85;100.00;99909.44;5057208;28;20029;-68
2024/02/04 03:39:31;;;;;;;29.02;4.20;;;;;;;4.89;100.00;99911.53;5056151;28;20514;-68
2024/02/04 03:41:57;;;;;;;20.13;2.92;;;;;;;4.92;100.00;99910.34;5057016;28;20453;-68
2024/02/04 03:44:22;;;;;;;24.60;3.75;;;;;;;4.86;100.00;99890.56;5057474;28;20031;-67
2024/02/04 03:46:48;;;;;;;28.15;4.80;;;;;;;4.87;100.00;99876.25;5057031;28;20063;-68
2024/02/04 03:49:15;;;;;;;31.23;3.70;;;;;;;4.79;100.00;99872.84;5057203;28;20028;-69
2024/02/04 03:51:40;;;;;;;33.08;4.82;;;;;;;4.76;100.00;99863.38;5055857;28;20064;-69
2024/02/04 03:54:06;;;;;;;24.25;3.85;;;;;;;4.67;100.00;99833.34;5038686;28;20032;-68
2024/02/04 03:56:31;;;;;;;19.92;3.33;;;;;;;4.84;100.00;99865.97;5055343;28;20040;-67
2024/02/04 03:58:56;;;;;;;25.40;4.10;;;;;;;4.82;100.00;99861.81;5056944;28;20025;-70
2024/02/04 04:01:22;;;;;;;37.95;4.75;;;;;;;4.60;100.00;99837.75;5055853;28;20516;-68
2024/02/04 04:03:47;;;;;;;26.25;3.40;;;;;;;4.77;100.00;99856.19;5057089;28;20025;-68
2024/02/04 04:06:12;;;;;;;27.23;3.58;;;;;;;4.80;100.00;99856.69;5022609;28;20052;-68
2024/02/04 04:08:38;;;;;;;21.70;3.25;;;;;;;4.79;100.00;99851.53;5057113;28;20029;-69
2024/02/04 04:11:05;;;;;;;25.17;3.95;;;;;;;4.63;100.00;99821.38;5057298;28;20040;-68
2024/02/04 04:13:32;;;;;;;18.60;2.75;;;;;;;4.77;100.00;99853.53;5057285;28;20512;-69
2024/02/04 04:15:57;;;;;;;29.95;3.72;;;;;;;4.75;100.00;99848.41;5056004;28;20539;-68
2024/02/04 04:18:22;;;;;;;24.23;3.88;;;;;;;4.75;100.00;99834.25;5055360;28;20048;-68
2024/02/04 04:20:49;;;;;;;28.98;3.58;;;;;;;4.76;100.00;99825.25;5056664;28;20085;-68
2024/02/04 04:23:14;;;;;;;26.88;3.55;;;;;;;4.67;100.00;99808.53;5038904;28;20052;-68
2024/02/04 04:25:40;;;;;;;23.50;3.50;;;;;;;4.74;100.00;99835.28;5054430;28;20037;-67
2024/02/04 04:28:05;;;;;;;18.58;3.05;;;;;;;4.60;100.00;99800.47;5052460;28;20037;-67
2024/02/04 04:30:30;;;;;;;24.50;3.90;;;;;;;4.82;100.00;99836.00;5054438;28;20063;-69
2024/02/04 04:32:56;;;;;;;30.85;3.85;;;;;;;4.64;100.00;99799.06;5053557;28;20029;-68
2024/02/04 04:35:21;;;;;;;16.85;2.50;;;;;;;4.83;100.00;99821.63;5055527;28;20352;-68
2024/02/04 04:37:47;;;;;;;27.15;4.13;;;;;;;4.83;100.00;99821.63;5054475;28;20041;-68
2024/02/04 04:40:12;;;;;;;31.52;4.38;;;;;;;4.87;100.00;99812.28;5055634;28;20071;-69
2024/02/04 04:42:38;;;;;;;29.83;4.30;;;;;;;4.73;100.00;99789.13;5056176;28;20033;-69
2024/02/04 04:45:04;;;;;;;29.15;3.95;;;;;;;4.92;100.00;99825.03;5055441;28;20499;-69
2024/02/04 04:47:29;;;;;;;23.58;3.38;;;;;;;4.85;100.00;99800.97;5055423;28;20051;-68
2024/02/04 04:49:54;;;;;;;26.02;4.07;;;;;;;4.89;100.00;99804.91;5056319;28;20290;-68
2024/02/04 04:52:20;;;;;;;21.05;3.35;;;;;;;4.86;100.00;99797.28;5056411;28;20033;-68
2024/02/04 04:54:45;;;;;;;27.95;4.22;;;;;;;4.75;100.00;99762.31;5055646;28;20028;-68
2024/02/04 04:57:11;;;;;;;24.85;3.83;;;;;;;4.93;100.00;99778.69;5056070;28;20032;-69
2024/02/04 04:59:37;;;;;;;26.80;5.13;;;;;;;4.89;100.00;99780.09;5055088;28;20056;-69
2024/02/04 05:02:04;;;;;;;33.53;5.18;;;;;;;4.77;100.00;99752.25;5056612;28;20435;-68
2024/02/04 05:04:29;;;;;;;28.73;4.38;;;;;;;4.92;100.00;99756.56;5055054;28;20021;-68
2024/02/04 05:06:55;;;;;;;25.98;4.40;;;;;;;4.94;100.00;99751.03;5037748;28;20493;-67
2024/02/04 05:09:20;;;;;;;24.30;3.50;;;;;;;4.90;100.00;99731.09;5055994;28;20029;-67
2024/02/04 05:11:45;;;;;;;29.38;3.97;;;;;;;4.92;100.00;99735.22;5038116;28;20404;-70
2024/02/04 05:14:11;;;;;;;17.15;2.58;;;;;;;4.93;100.00;99733.38;5056403;28;20110;-67
2024/02/04 05:16:36;;;;;;;26.27;4.20;;;;;;;4.88;100.00;99717.16;5056303;28;20040;-68
2024/02/04 05:19:02;;;;;;;25.60;3.13;;;;;;;4.91;100.00;99722.09;5058545;28;20060;-69
2024/02/04 05:21:28;;;;;;;27.23;4.10;;;;;;;4.94;100.00;99708.41;5058842;28;20033;-68
2024/02/04 05:23:53;;;;;;;25.38;4.13;;;;;;;4.95;100.00;99710.84;5055545;28;20257;-67
2024/02/04 05:26:18;;;;;;;18.35;3.33;;;;;;;4.99;100.00;99723.81;5057530;28;20090;-68
2024/02/04 05:28:44;;;;;;;28.17;4.78;;;;;;;5.03;100.00;99725.91;5040857;28;20029;-67
2024/02/04 05:31:09;;;;;;;27.40;3.45;;;;;;;5.06;100.00;99712.19;5059252;28;20091;-70
2024/02/04 05:33:35;;;;;;;18.65;3.40;;;;;;;5.11;100.00;99700.97;5058973;28;20086;-68
2024/02/04 05:36:00;;;;;;;26.15;4.65;;;;;;;5.09;100.00;99711.81;5057888;28;20487;-68
2024/02/04 05:38:26;;;;;;;26.00;3.17;;;;;;;5.05;100.00;99713.22;5057657;28;20071;-68
2024/02/04 05:40:51;;;;;;;27.10;3.38;;;;;;;5.06;100.00;99714.84;5057147;28;20026;-68
2024/02/04 05:43:16;;;;;;;23.05;3.35;;;;;;;5.00;100.00;99688.97;5057725;28;20757;-68
2024/02/04 05:45:42;;;;;;;25.27;3.53;;;;;;;5.07;100.00;99673.03;5059384;28;20028;-72
2024/02/04 05:48:08;;;;;;;23.25;3.35;;;;;;;5.12;100.00;99691.94;5058814;28;20029;-69
2024/02/04 05:50:33;;;;;;;27.95;4.18;;;;;;;5.06;100.00;99660.72;5061614;28;20059;-68
2024/02/04 05:52:58;;;;;;;26.25;4.22;;;;;;;5.08;100.00;99674.69;5058973;28;20030;-69
2024/02/04 05:55:24;;;;;;;29.92;3.90;;;;;;;5.15;100.00;99665.72;5057729;28;20037;-68
2024/02/04 05:57:49;;;;;;;32.75;4.22;;;;;;;5.16;100.00;99675.38;5057621;28;20031;-68
2024/02/04 06:00:15;;;;;;;24.70;3.95;;;;;;;5.20;100.00;99667.84;5057733;28;20029;-68
2024/02/04 06:02:42;;;;;;;28.70;4.70;;;;;;;5.24;100.00;99668.28;5041006;28;20040;-68
2024/02/04 06:05:08;;;;;;;29.17;3.88;;;;;;;5.30;100.00;99663.00;5057511;28;20087;-68
2024/02/04 06:07:34;;;;;;;30.08;4.50;;;;;;;5.22;100.00;99644.44;5058659;28;20036;-68
2024/02/04 06:10:00;;;;;;;19.48;3.65;;;;;;;5.41;100.00;99656.28;5057661;28;20025;-68
2024/02/04 06:12:25;;;;;;;29.50;4.63;;;;;;;5.42;100.00;99647.25;5057472;28;20036;-68
2024/02/04 06:14:50;;;;;;;25.73;4.55;;;;;;;5.42;100.00;99652.59;5056623;28;20040;-67
2024/02/04 06:17:16;;;;;;;26.67;4.15;;;;;;;5.43;100.00;99654.28;5040591;28;20029;-68
2024/02/04 06:19:42;;;;;;;20.17;3.05;;;;;;;5.30;100.00;99647.00;5057854;28;20040;-69
2024/02/04 06:22:08;;;;;;;16.33;3.35;;;;;;;5.44;100.00;99661.25;5057004;28;20048;-68
2024/02/04 06:24:33;;;;;;;15.25;2.63;;;;;;;5.42;100.00;99649.94;5058299;28;20033;-68
2024/02/04 06:26:58;;;;;;;30.45;5.05;;;;;;;5.43;100.00;99651.59;5058386;28;20036;-68
2024/02/04 06:29:24;;;;;;;40.78;4.65;;;;;;;5.34;100.00;99653.56;5056694;28;20372;-68
2024/02/04 06:31:49;;;;;;;30.83;4.30;;;;;;;5.42;100.00;99652.59;5058314;28;20052;-68
2024/02/04 06:34:15;;;;;;;43.42;6.78;;;;;;;5.42;100.00;99660.59;5057183;28;20498;-67
2024/02/04 06:36:44;;;;;;;31.95;4.40;;;;;;;5.46;100.00;99661.03;5057274;28;20033;-67
2024/02/04 06:39:10;;;;;;;29.13;5.55;;;;;;;5.47;100.00;99650.19;5056595;28;20074;-68
2024/02/04 06:41:35;;;;;;;33.03;5.78;;;;;;;5.51;100.00;99646.09;5058518;28;20116;-68
2024/02/04 06:44:04;;;;;;;30.50;5.55;;;;;;;5.32;100.00;99620.94;5057051;28;20036;-68
2024/02/04 06:46:29;;;;;;;41.35;5.38;;;;;;;5.49;100.00;99647.31;5040588;28;20064;-68
2024/02/04 06:48:55;;;;;;;41.80;5.90;;;;;;;5.34;100.00;99624.25;5058252;28;20139;-69
2024/02/04 06:51:20;;;;;;;45.80;6.32;;;;;;;5.26;100.00;99605.69;5056854;28;20498;-68
2024/02/04 06:53:46;;;;;;;40.60;5.43;;;;;;;5.39;100.00;99615.63;5040197;28;20499;-68
2024/02/04 06:56:11;;;;;;;28.90;5.35;;;;;;;5.37;100.00;99613.19;5040230;28;20028;-67
2024/02/04 06:58:38;;;;;;;27.65;4.60;;;;;;;5.41;100.00;99617.09;5058483;28;20025;-67
2024/02/04 07:01:04;;;;;;;15.85;2.97;;;;;;;5.42;100.00;99623.25;5058064;28;20029;-68
2024/02/04 07:03:30;;;;;;;17.10;3.35;;;;;;;5.43;100.00;99619.59;5056594;28;20060;-69
2024/02/04 07:05:57;;;;;;;28.65;4.18;;;;;;;5.46;100.00;99563.16;5055963;28;20043;-68
2024/02/04 07:08:23;;;;;;;14.20;2.60;;;;;;;5.45;100.00;99590.84;5056248;28;20044;-68
2024/02/04 07:10:51;;;;;;;17.80;2.95;;;;;;;5.34;100.00;99589.56;5057121;28;20480;-68
2024/02/04 07:13:17;;;;;;;17.25;2.67;;;;;;;5.41;100.00;99601.09;5056146;28;20098;-68
2024/02/04 07:15:43;;;;;;;20.42;3.53;;;;;;;5.35;100.00;99595.72;5040277;28;20084;-67
2024/02/04 07:18:08;;;;;;;17.48;3.03;;;;;;;5.48;100.00;99617.16;5058536;28;20108;-69
2024/02/04 07:20:33;;;;;;;14.20;2.63;;;;;;;5.42;100.00;99612.59;5060146;28;20037;-67
2024/02/04 07:22:59;;;;;;;24.35;3.53;;;;;;;5.40;100.00;99610.13;5058423;28;20036;-66
2024/02/04 07:25:24;;;;;;;18.90;3.05;;;;;;;5.43;100.00;99598.25;5060640;28;20025;-68
2024/02/04 07:27:50;;;;;;;17.75;2.92;;;;;;;5.35;100.00;99583.19;5061169;28;20036;-68
2024/02/04 07:30:15;;;;;;;21.65;3.33;;;;;;;5.22;100.00;99560.94;5060661;28;20029;-68
2024/02/04 07:32:41;;;;;;;21.38;3.58;;;;;;;5.34;100.00;99596.75;5059879;28;20040;-67
2024/02/04 07:35:08;;;;;;;16.50;2.97;;;;;;;5.19;100.00;99556.81;5043800;28;20037;-67
2024/02/04 07:37:34;;;;;;;19.52;2.95;;;;;;;5.33;100.00;99571.91;5060219;28;20059;-67
2024/02/04 07:40:01;;;;;;;33.92;3.35;;;;;;;5.30;100.00;99564.31;5061198;28;20035;-67
2024/02/04 07:42:26;;;;;;;22.90;3.90;;;;;;;5.30;100.00;99555.47;5060723;28;20037;-66
2024/02/04 07:44:52;;;;;;;18.60;2.78;;;;;;;5.31;100.00;99565.13;5059672;28;20059;-70
2024/02/04 07:47:19;;;;;;;28.60;4.88;;;;;;;5.30;100.00;99576.81;5023722;28;20037;-67
2024/02/04 07:49:44;;;;;;;23.25;4.50;;;;;;;5.34;100.00;99572.75;5056435;28;20025;-68
2024/02/04 07:52:10;;;;;;;22.83;3.88;;;;;;;5.33;100.00;99561.25;5057805;28;20041;-67
2024/02/04 07:54:35;;;;;;;28.15;3.85;;;;;;;5.35;100.00;99558.38;5040351;28;20535;-68
2024/02/04 07:57:01;;;;;;;46.25;4.40;;;;;;;5.33;100.00;99555.91;5057188;28;20056;-68
2024/02/04 07:59:26;;;;;;;26.83;3.97;;;;;;;5.30;100.00;99564.31;5056724;28;20029;-68
2024/02/04 08:01:52;;;;;;;23.60;3.88;;;;;;;5.40;100.00;99559.44;5055778;28;20029;-69
2024/02/04 08:04:18;;;;;;;26.92;4.80;;;;;;;5.38;100.00;99553.47;5055248;28;20060;-68
2024/02/04 08:06:45;;;;;;;25.15;4.22;;;;;;;5.39;100.00;99551.63;5039158;28;20033;-67
2024/02/04 08:09:11;;;;;;;29.98;4.22;;;;;;;5.43;100.00;99539.56;5055431;28;20090;-69
2024/02/04 08:11:37;;;;;;;30.00;3.75;;;;;;;5.45;100.00;99552.69;5055535;28;20033;-68
2024/02/04 08:14:02;;;;;;;24.55;4.35;;;;;;;5.41;100.00;99555.75;5056316;28;20028;-68
2024/02/04 08:16:27;;;;;;;25.63;3.85;;;;;;;5.50;100.00;99535.06;5056424;28;20033;-67
2024/02/04 08:18:53;;;;;;;17.08;3.17;;;;;;;5.51;100.00;99543.91;5055054;28;20511;-70
2024/02/04 08:21:18;;;;;;;28.65;3.60;;;;;;;5.48;100.00;99558.44;5055364;28;20086;-69
2024/02/04 08:23:44;;;;;;;18.95;3.55;;;;;;;5.33;100.00;99523.06;5055877;28;20420;-68
2024/02/04 08:26:10;;;;;;;34.50;4.30;;;;;;;5.44;100.00;99557.19;5055559;28;20083;-68
2024/02/04 08:28:35;;;;;;;27.90;4.57;;;;;;;5.48;100.00;99552.28;5056673;28;20032;-72
2024/02/04 08:31:01;;;;;;;26.90;4.05;;;;;;;5.47;100.00;99556.81;5056357;28;20021;-69
2024/02/04 08:33:26;;;;;;;27.10;4.68;;;;;;;5.31;100.00;99533.13;5056162;28;20122;-68
2024/02/04 08:35:52;;;;;;;39.63;5.20;;;;;;;5.40;100.00;99556.78;5055128;28;20032;-68
2024/02/04 08:38:17;;;;;;;40.15;6.53;;;;;;;5.40;100.00;99546.09;5039272;28;20039;-68
2024/02/04 08:40:42;;;;;;;33.90;4.90;;;;;;;5.30;100.00;99528.81;5038701;28;20112;-69
2024/02/04 08:43:08;;;;;;;31.92;4.55;;;;;;;5.49;100.00;99557.41;5056412;28;20033;-69
2024/02/04 08:45:33;;;;;;;25.30;3.25;;;;;;;5.49;100.00;99538.75;5055041;28;20040;-67
2024/02/04 08:47:58;;;;;;;28.55;4.30;;;;;;;5.35;100.00;99527.19;5056219;28;20573;-67
2024/02/04 08:50:24;;;;;;;28.17;4.85;;;;;;;5.49;100.00;99540.59;5055347;28;20055;-67
2024/02/04 08:52:49;;;;;;;38.53;6.63;;;;;;;5.52;100.00;99535.69;5060050;28;20083;-67
2024/02/04 08:55:14;;;;;;;28.85;4.25;;;;;;;5.58;100.00;99547.41;5060958;28;20032;-69
2024/02/04 08:57:40;;;;;;;26.45;4.43;;;;;;;5.59;100.00;99530.38;5043027;28;20510;-69
2024/02/04 09:00:08;;;;;;;27.60;4.05;;;;;;;5.61;100.00;99518.50;5058861;28;20109;-69
2024/02/04 09:02:34;;;;;;;35.20;6.05;;;;;;;5.66;100.00;99499.22;5059271;28;20029;-69
2024/02/04 09:05:00;;;;;;;26.13;4.15;;;;;;;5.68;100.00;99507.03;5059112;28;20033;-69
2024/02/04 09:07:25;;;;;;;31.40;4.45;;;;;;;5.56;100.00;99483.59;5056740;28;20029;-67
2024/02/04 09:09:52;;;;;;;27.60;4.70;;;;;;;5.66;100.00;99491.19;5057910;28;20027;-68
2024/02/04 09:12:17;;;;;;;41.10;5.65;;;;;;;5.57;100.00;99487.91;5057494;28;20025;-68
2024/02/04 09:14:43;;;;;;;28.55;4.35;;;;;;;5.48;100.00;99470.41;5058872;28;20033;-69
2024/02/04 09:17:09;;;;;;;34.33;4.15;;;;;;;5.65;100.00;99511.72;5058286;28;20075;-68
2024/02/04 09:19:35;;;;;;;31.27;4.50;;;;;;;5.46;100.00;99464.44;5059527;28;20115;-68
2024/02/04 09:22:01;;;;;;;29.98;5.53;;;;;;;5.44;100.00;99465.69;5059391;28;20182;-69
2024/02/04 09:24:29;;;;;;;31.85;5.20;;;;;;;5.69;100.00;99504.16;5057770;28;20067;-69
2024/02/04 09:26:55;;;;;;;29.20;4.97;;;;;;;5.69;100.00;99506.00;5059124;28;20033;-69
2024/02/04 09:29:21;;;;;;;38.00;5.70;;;;;;;5.65;100.00;99511.72;5059861;28;20035;-68
2024/02/04 09:31:49;;;;;;;38.45;6.53;;;;;;;5.66;100.00;99515.22;5057911;28;20036;-69
2024/02/04 09:34:14;;;;;;;29.67;4.40;;;;;;;5.71;100.00;99511.97;5058351;28;20057;-69
2024/02/04 09:36:40;;;;;;;23.38;4.10;;;;;;;5.71;100.00;99512.78;5057740;28;20049;-68
2024/02/04 09:39:06;;;;;;;33.90;5.72;;;;;;;5.65;100.00;99501.06;5058570;28;20064;-67
2024/02/04 09:41:31;;;;;;;39.45;5.50;;;;;;;5.64;100.00;99486.06;5060352;28;20036;-66
2024/02/04 09:43:57;;;;;;;33.25;5.32;;;;;;;5.74;100.00;99512.41;5060100;28;20037;-71
2024/02/04 09:46:23;;;;;;;37.00;5.43;;;;;;;5.82;100.00;99532.75;5058383;28;20033;-68
2024/02/04 09:48:51;;;;;;;39.20;5.47;;;;;;;5.80;100.00;99540.97;5041469;28;20086;-69
2024/02/04 09:51:16;;;;;;;38.97;6.45;;;;;;;5.77;100.00;99530.69;5060290;28;20055;-68
2024/02/04 09:53:44;;;;;;;38.85;5.63;;;;;;;5.65;100.00;99495.72;5057785;28;20060;-69
2024/02/04 09:56:11;;;;;;;27.92;5.78;;;;;;;5.72;100.00;99522.44;5059290;28;20032;-68
2024/02/04 09:58:37;;;;;;;25.00;3.70;;;;;;;5.75;100.00;99529.22;5057892;28;20025;-68
2024/02/04 10:01:04;;;;;;;32.90;5.95;;;;;;;5.74;100.00;99516.91;5056729;28;20387;-68
2024/02/04 10:03:29;;;;;;;35.53;5.82;;;;;;;5.78;100.00;99515.50;5053471;28;20021;-68
2024/02/04 10:05:55;;;;;;;29.50;5.22;;;;;;;5.81;100.00;99531.91;5057356;28;20039;-68
2024/02/04 10:08:21;;;;;;;32.08;4.47;;;;;;;5.72;100.00;99521.63;5058179;28;20036;-68
2024/02/04 10:10:47;;;;;;;16.38;2.95;;;;;;;5.87;100.00;99541.00;5056861;28;20048;-68
2024/02/04 10:13:12;;;;;;;37.15;6.45;;;;;;;5.75;100.00;99534.56;5058364;28;20036;-69
2024/02/04 10:15:38;;;;;;;34.88;5.60;;;;;;;5.63;100.00;99510.31;5058655;28;20125;-68
2024/02/04 10:18:05;;;;;;;40.60;5.90;;;;;;;5.76;100.00;99537.06;5058175;28;20033;-69
2024/02/04 10:20:31;;;;;;;38.00;5.82;;;;;;;5.68;100.00;99536.38;5039894;28;20056;-68
2024/02/04 10:22:56;;;;;;;32.97;5.35;;;;;;;5.69;100.00;99546.84;5057278;28;20025;-68
2024/02/04 10:25:22;;;;;;;30.15;4.75;;;;;;;5.73;100.00;99539.25;5057356;28;20033;-68
2024/02/04 10:27:47;;;;;;;46.40;6.55;;;;;;;5.70;100.00;99540.50;5058690;28;20036;-67
2024/02/04 10:30:14;;;;;;;44.40;6.63;;;;;;;5.67;100.00;99534.75;5040570;28;20126;-68
2024/02/04 10:32:40;;;;;;;24.73;4.30;;;;;;;5.64;100.00;99546.63;5057164;28;20025;-67
2024/02/04 10:35:05;;;;;;;33.40;5.15;;;;;;;5.37;100.00;99498.47;5057849;28;20097;-68
2024/02/04 10:37:31;;;;;;;29.25;5.07;;;;;;;5.62;100.00;99528.13;5057013;28;20029;-69
2024/02/04 10:39:56;;;;;;;45.13;6.55;;;;;;;5.68;100.00;99547.06;5040002;28;20036;-68
2024/02/04 10:42:25;;;;;;;47.20;7.60;;;;;;;5.76;100.00;99539.72;5040296;28;20606;-69
2024/02/04 10:44:53;;;;;;;41.15;6.38;;;;;;;5.74;100.00;99530.25;5056896;28;20086;-70
2024/02/04 10:47:22;;;;;;;36.97;5.35;;;;;;;5.72;100.00;99509.09;5058121;28;20032;-67
2024/02/04 10:49:53;;;;;;;29.40;5.13;;;;;;;5.74;100.00;99515.06;5056354;28;20122;-68
2024/02/04 10:52:18;;;;;;;38.38;5.35;;;;;;;5.73;100.00;99510.75;5056572;28;20040;-68
2024/02/04 10:54:44;;;;;;;32.28;5.50;;;;;;;5.53;100.00;99483.13;5039835;28;20040;-69
2024/02/04 10:57:13;;;;;;;31.65;4.43;;;;;;;5.63;100.00;99508.47;5057357;28;20056;-68
2024/02/04 10:59:40;;;;;;;37.92;5.70;;;;;;;5.72;100.00;99511.75;5057079;28;20024;-68
2024/02/04 11:02:06;;;;;;;32.90;4.40;;;;;;;5.73;100.00;99526.78;5057398;28;20051;-67
2024/02/04 11:04:34;;;;;;;32.42;5.80;;;;;;;5.75;100.00;99518.56;5057630;28;20135;-69
2024/02/04 11:07:01;;;;;;;41.40;5.47;;;;;;;5.81;100.00;99515.91;5055775;28;20373;-68
2024/02/04 11:09:27;;;;;;;36.97;5.72;;;;;;;5.83;100.00;99513.88;5039945;28;20063;-69
2024/02/04 11:11:55;;;;;;;38.50;6.18;;;;;;;5.85;100.00;99511.00;5060032;28;20037;-69
2024/02/04 11:14:22;;;;;;;31.70;4.90;;;;;;;5.77;100.00;99479.16;5059195;28;20028;-68
2024/02/04 11:17:13;;;;;;;35.47;5.32;;;;;;;5.83;100.00;99505.03;5058606;28;20021;-68
2024/02/04 11:19:44;;;;;;;41.40;5.35;;;;;;;5.85;100.00;99514.47;5057709;28;20041;-68